Time,TemperatureF,DewpointF,PressureIn,WindDirection,WindDirectionDegrees,WindSpeedMPH,WindSpeedGustMPH,Humidity,HourlyPrecipIn,Conditions,Clouds,dailyrainin,SoftwareType,DateUTC
2013-05-10 00:03:00,39.0,-99.9,30.07,North,360,20.0,25.0,-999,-99.99,,,-99.99,,2013-05-10 05:03:00,
2013-05-10 00:12:00,39.0,-99.9,30.07,North,360,20.0,25.0,-999,-99.99,,,-99.99,,2013-05-10 05:12:00,
2013-05-10 00:22:00,39.0,-99.9,30.07,North,360,20.0,25.0,-999,-99.99,,,-99.99,,2013-05-10 05:22:00,
2013-05-10 00:32:00,39.0,-99.9,30.07,North,360,20.0,25.0,-999,-99.99,,,-99.99,,2013-05-10 05:32:00,
2013-05-10 00:40:00,39.0,-99.9,30.06,North,360,17.0,25.0,-999,-99.99,,,-99.99,,2013-05-10 05:40:00,
2013-05-10 01:02:00,39.0,-99.9,30.06,North,360,17.0,25.0,-999,-99.99,,,-99.99,,2013-05-10 06:02:00,
2013-05-10 01:12:00,39.0,-99.9,30.06,North,360,17.0,25.0,-999,-99.99,,,-99.99,,2013-05-10 06:12:00,
2013-05-10 01:22:00,39.0,-99.9,30.06,North,360,17.0,25.0,-999,-99.99,,,-99.99,,2013-05-10 06:22:00,
2013-05-10 01:32:00,39.0,-99.9,30.06,North,360,17.0,25.0,-999,-99.99,,,-99.99,,2013-05-10 06:32:00,
2013-05-10 02:02:00,39.0,-99.9,30.03,North,10,21.0,26.0,-999,-99.99,,,-99.99,,2013-05-10 07:02:00,
2013-05-10 02:12:00,39.0,-99.9,30.03,North,10,21.0,26.0,-999,-99.99,,,-99.99,,2013-05-10 07:12:00,
2013-05-10 02:22:00,39.0,-99.9,30.03,North,10,21.0,26.0,-999,-99.99,,,-99.99,,2013-05-10 07:22:00,
2013-05-10 02:32:00,38.0,-99.9,30.02,North,10,22.0,30.0,-999,-99.99,,,-99.99,,2013-05-10 07:32:00,
2013-05-10 02:40:00,38.0,-99.9,30.01,North,10,21.0,28.0,-999,-99.99,,,-99.99,,2013-05-10 07:40:00,
2013-05-10 02:42:00,38.0,-99.9,30.02,North,10,22.0,30.0,-999,-99.99,,,-99.99,,2013-05-10 07:42:00,
2013-05-10 02:52:00,38.0,-99.9,30.02,North,10,22.0,30.0,-999,-99.99,,,-99.99,,2013-05-10 07:52:00,
2013-05-10 03:02:00,38.0,-99.9,30.01,North,10,21.0,28.0,-999,-99.99,,,-99.99,,2013-05-10 08:02:00,
2013-05-10 03:12:00,38.0,-99.9,30.01,North,10,21.0,28.0,-999,-99.99,,,-99.99,,2013-05-10 08:12:00,
2013-05-10 03:22:00,38.0,-99.9,30.01,North,10,21.0,28.0,-999,-99.99,,,-99.99,,2013-05-10 08:22:00,
2013-05-10 03:33:00,38.0,-99.9,30.01,North,10,21.0,28.0,-999,-99.99,,,-99.99,,2013-05-10 08:33:00,
2013-05-10 03:40:00,38.0,-99.9,30.02,North,10,20.0,25.0,-999,-99.99,,,-99.99,,2013-05-10 08:40:00,
2013-05-10 04:02:00,38.0,-99.9,30.02,North,10,20.0,25.0,-999,-99.99,,,-99.99,,2013-05-10 09:02:00,
2013-05-10 04:11:00,38.0,-99.9,30.02,North,10,20.0,25.0,-999,-99.99,,,-99.99,,2013-05-10 09:11:00,
2013-05-10 04:22:00,38.0,-99.9,30.02,North,10,20.0,25.0,-999,-99.99,,,-99.99,,2013-05-10 09:22:00,
2013-05-10 04:33:00,38.0,-99.9,30.02,North,10,20.0,25.0,-999,-99.99,,,-99.99,,2013-05-10 09:33:00,
2013-05-10 04:40:00,38.0,-99.9,30.03,North,10,17.0,22.0,-999,-99.99,,,-99.99,,2013-05-10 09:40:00,
2013-05-10 05:03:00,38.0,-99.9,30.03,North,10,17.0,22.0,-999,-99.99,,,-99.99,,2013-05-10 10:03:00,
2013-05-10 05:12:00,38.0,-99.9,30.03,North,10,17.0,22.0,-999,-99.99,,,-99.99,,2013-05-10 10:12:00,
2013-05-10 05:23:00,38.0,-99.9,30.03,North,10,17.0,22.0,-999,-99.99,,,-99.99,,2013-05-10 10:23:00,
2013-05-10 05:33:00,38.0,-99.9,30.03,North,10,17.0,22.0,-999,-99.99,,,-99.99,,2013-05-10 10:33:00,
2013-05-10 05:40:00,38.0,-99.9,30.03,North,10,18.0,22.0,-999,-99.99,,,-99.99,,2013-05-10 10:40:00,
2013-05-10 06:02:00,38.0,-99.9,30.03,North,10,18.0,22.0,-999,-99.99,,,-99.99,,2013-05-10 11:02:00,
2013-05-10 06:12:00,38.0,-99.9,30.03,North,10,18.0,22.0,-999,-99.99,,,-99.99,,2013-05-10 11:12:00,
2013-05-10 06:22:00,38.0,-99.9,30.03,North,10,18.0,22.0,-999,-99.99,,,-99.99,,2013-05-10 11:22:00,
2013-05-10 06:32:00,38.0,-99.9,30.03,North,10,18.0,22.0,-999,-99.99,,,-99.99,,2013-05-10 11:32:00,
2013-05-10 06:40:00,37.0,-99.9,30.03,North,10,17.0,21.0,-999,-99.99,,,-99.99,,2013-05-10 11:40:00,
2013-05-10 07:02:00,37.0,-99.9,30.03,North,10,17.0,21.0,-999,-99.99,,,-99.99,,2013-05-10 12:02:00,
2013-05-10 07:12:00,37.0,-99.9,30.03,North,10,17.0,21.0,-999,-99.99,,,-99.99,,2013-05-10 12:12:00,
2013-05-10 07:22:00,37.0,-99.9,30.03,North,10,17.0,21.0,-999,-99.99,,,-99.99,,2013-05-10 12:22:00,
2013-05-10 07:32:00,37.0,-99.9,30.03,North,10,17.0,21.0,-999,-99.99,,,-99.99,,2013-05-10 12:32:00,
2013-05-10 07:40:00,37.0,-99.9,30.04,North,360,20.0,23.0,-999,-99.99,,,-99.99,,2013-05-10 12:40:00,
2013-05-10 08:01:00,37.0,-99.9,30.04,North,360,20.0,23.0,-999,-99.99,,,-99.99,,2013-05-10 13:01:00,
2013-05-10 08:11:00,37.0,-99.9,30.04,North,360,20.0,23.0,-999,-99.99,,,-99.99,,2013-05-10 13:11:00,
2013-05-10 08:21:00,37.0,-99.9,30.04,North,360,20.0,23.0,-999,-99.99,,,-99.99,,2013-05-10 13:21:00,
2013-05-10 08:32:00,37.0,-99.9,30.04,North,360,20.0,23.0,-999,-99.99,,,-99.99,,2013-05-10 13:32:00,
2013-05-10 08:40:00,37.0,-99.9,30.05,North,360,17.0,22.0,-999,-99.99,,,-99.99,,2013-05-10 13:40:00,
2013-05-10 09:02:00,37.0,-99.9,30.05,North,360,17.0,22.0,-999,-99.99,,,-99.99,,2013-05-10 14:02:00,
2013-05-10 09:11:00,37.0,-99.9,30.05,North,360,17.0,22.0,-999,-99.99,,,-99.99,,2013-05-10 14:11:00,
2013-05-10 09:22:00,37.0,-99.9,30.05,North,360,17.0,22.0,-999,-99.99,,,-99.99,,2013-05-10 14:22:00,
2013-05-10 09:32:00,37.0,-99.9,30.05,North,360,17.0,22.0,-999,-99.99,,,-99.99,,2013-05-10 14:32:00,
2013-05-10 09:40:00,37.0,-99.9,30.04,North,360,17.0,24.0,-999,-99.99,,,-99.99,,2013-05-10 14:40:00,
2013-05-10 10:02:00,37.0,-99.9,30.04,North,360,17.0,24.0,-999,-99.99,,,-99.99,,2013-05-10 15:02:00,
2013-05-10 10:21:00,-999.0,-99.9,30.04,North,360,17.0,24.0,-999,-99.99,,,-99.99,,2013-05-10 15:21:00,
2013-05-10 10:32:00,37.0,-99.9,30.04,North,360,17.0,24.0,-999,-99.99,,,-99.99,,2013-05-10 15:32:00,
2013-05-10 10:40:00,38.0,-99.9,30.04,North,360,20.0,23.0,-999,-99.99,,,-99.99,,2013-05-10 15:40:00,
2013-05-10 11:02:00,38.0,-99.9,30.04,North,360,20.0,23.0,-999,-99.99,,,-99.99,,2013-05-10 16:02:00,
2013-05-10 11:12:00,38.0,-99.9,30.04,North,360,20.0,23.0,-999,-99.99,,,-99.99,,2013-05-10 16:12:00,
2013-05-10 11:23:00,38.0,-99.9,30.04,North,360,20.0,23.0,-999,-99.99,,,-99.99,,2013-05-10 16:23:00,
2013-05-10 11:33:00,38.0,-99.9,30.04,North,360,20.0,23.0,-999,-99.99,,,-99.99,,2013-05-10 16:33:00,
2013-05-10 11:40:00,38.0,-99.9,30.04,North,360,18.0,23.0,-999,-99.99,,,-99.99,,2013-05-10 16:40:00,
2013-05-10 12:02:00,38.0,-99.9,30.04,North,360,18.0,23.0,-999,-99.99,,,-99.99,,2013-05-10 17:02:00,
2013-05-10 12:12:00,38.0,-99.9,30.04,North,360,18.0,23.0,-999,-99.99,,,-99.99,,2013-05-10 17:12:00,
2013-05-10 12:22:00,38.0,-99.9,30.04,North,360,18.0,23.0,-999,-99.99,,,-99.99,,2013-05-10 17:22:00,
2013-05-10 12:32:00,38.0,-99.9,30.04,North,360,18.0,23.0,-999,-99.99,,,-99.99,,2013-05-10 17:32:00,
2013-05-10 12:40:00,40.0,-99.9,30.04,North,10,13.0,15.0,-999,-99.99,,,-99.99,,2013-05-10 17:40:00,
2013-05-10 13:11:00,-999.0,-99.9,-100.00,North,10,13.0,15.0,-999,-99.99,,,-99.99,,2013-05-10 18:11:00,
2013-05-10 13:22:00,40.0,-99.9,30.04,North,10,13.0,15.0,-999,-99.99,,,-99.99,,2013-05-10 18:22:00,
2013-05-10 13:35:00,40.0,-99.9,30.04,North,10,13.0,15.0,-999,-99.99,,,-99.99,,2013-05-10 18:35:00,
2013-05-10 13:40:00,42.0,-99.9,30.02,North,10,11.0,15.0,-999,-99.99,,,-99.99,,2013-05-10 18:40:00,
2013-05-10 14:02:00,42.0,-99.9,30.02,North,10,11.0,15.0,-999,-99.99,,,-99.99,,2013-05-10 19:02:00,
2013-05-10 14:12:00,42.0,-99.9,30.02,North,10,11.0,15.0,-999,-99.99,,,-99.99,,2013-05-10 19:12:00,
2013-05-10 14:22:00,42.0,-99.9,30.02,North,10,11.0,15.0,-999,-99.99,,,-99.99,,2013-05-10 19:22:00,
2013-05-10 14:32:00,42.0,-99.9,30.02,North,10,11.0,15.0,-999,-99.99,,,-99.99,,2013-05-10 19:32:00,
2013-05-10 14:40:00,44.0,-99.9,30.02,ENE,70,8.0,14.0,-999,-99.99,,,-99.99,,2013-05-10 19:40:00,
2013-05-10 15:02:00,44.0,-99.9,30.02,ENE,70,8.0,14.0,-999,-99.99,,,-99.99,,2013-05-10 20:02:00,
2013-05-10 15:12:00,44.0,-99.9,30.02,ENE,70,8.0,14.0,-999,-99.99,,,-99.99,,2013-05-10 20:12:00,
2013-05-10 15:22:00,44.0,-99.9,30.02,ENE,70,8.0,14.0,-999,-99.99,,,-99.99,,2013-05-10 20:22:00,
2013-05-10 15:32:00,44.0,-99.9,30.02,ENE,70,8.0,14.0,-999,-99.99,,,-99.99,,2013-05-10 20:32:00,
2013-05-10 15:40:00,41.0,-99.9,30.01,ENE,70,11.0,13.0,-999,-99.99,,,-99.99,,2013-05-10 20:40:00,
2013-05-10 16:02:00,41.0,-99.9,30.01,ENE,70,11.0,13.0,-999,-99.99,,,-99.99,,2013-05-10 21:02:00,
2013-05-10 16:11:00,41.0,-99.9,30.01,ENE,70,11.0,13.0,-999,-99.99,,,-99.99,,2013-05-10 21:11:00,
2013-05-10 16:25:00,41.0,-99.9,30.01,ENE,70,11.0,13.0,-999,-99.99,,,-99.99,,2013-05-10 21:25:00,
2013-05-10 16:32:00,41.0,-99.9,30.01,ENE,70,11.0,13.0,-999,-99.99,,,-99.99,,2013-05-10 21:32:00,
2013-05-10 16:40:00,41.0,-99.9,30.01,ENE,70,9.0,13.0,-999,-99.99,,,-99.99,,2013-05-10 21:40:00,
2013-05-10 17:03:00,41.0,-99.9,30.01,ENE,70,9.0,13.0,-999,-99.99,,,-99.99,,2013-05-10 22:03:00,
2013-05-10 17:13:00,41.0,-99.9,30.01,ENE,70,9.0,13.0,-999,-99.99,,,-99.99,,2013-05-10 22:13:00,
2013-05-10 17:22:00,41.0,-99.9,30.01,ENE,70,9.0,13.0,-999,-99.99,,,-99.99,,2013-05-10 22:22:00,
2013-05-10 17:32:00,41.0,-99.9,30.01,ENE,70,9.0,13.0,-999,-99.99,,,-99.99,,2013-05-10 22:32:00,
2013-05-10 17:40:00,41.0,-99.9,29.99,East,80,8.0,14.0,-999,-99.99,,,-99.99,,2013-05-10 22:40:00,
2013-05-10 18:02:00,41.0,-99.9,29.99,East,80,8.0,14.0,-999,-99.99,,,-99.99,,2013-05-10 23:02:00,
2013-05-10 18:12:00,41.0,-99.9,29.99,East,80,8.0,14.0,-999,-99.99,,,-99.99,,2013-05-10 23:12:00,
2013-05-10 18:22:00,41.0,-99.9,29.99,East,80,8.0,14.0,-999,-99.99,,,-99.99,,2013-05-10 23:22:00,
2013-05-10 18:33:00,41.0,-99.9,29.99,East,80,8.0,14.0,-999,-99.99,,,-99.99,,2013-05-10 23:33:00,
2013-05-10 18:40:00,41.0,-99.9,29.96,SE,130,6.0,8.0,-999,-99.99,,,-99.99,,2013-05-10 23:40:00,
2013-05-10 19:02:00,41.0,-99.9,29.96,SE,130,6.0,8.0,-999,-99.99,,,-99.99,,2013-05-11 00:02:00,
2013-05-10 19:11:00,41.0,-99.9,29.96,SE,130,6.0,8.0,-999,-99.99,,,-99.99,,2013-05-11 00:11:00,
2013-05-10 19:22:00,41.0,-99.9,29.96,SE,130,6.0,8.0,-999,-99.99,,,-99.99,,2013-05-11 00:22:00,
2013-05-10 19:32:00,41.0,-99.9,29.96,SE,130,6.0,8.0,-999,-99.99,,,-99.99,,2013-05-11 00:32:00,
2013-05-10 19:40:00,41.0,-99.9,29.96,SE,130,6.0,7.0,-999,-99.99,,,-99.99,,2013-05-11 00:40:00,
2013-05-10 20:01:00,41.0,-99.9,29.96,SE,130,6.0,7.0,-999,-99.99,,,-99.99,,2013-05-11 01:01:00,
2013-05-10 20:11:00,41.0,-99.9,29.96,SE,130,6.0,7.0,-999,-99.99,,,-99.99,,2013-05-11 01:11:00,
2013-05-10 20:22:00,41.0,-99.9,29.96,SE,130,6.0,7.0,-999,-99.99,,,-99.99,,2013-05-11 01:22:00,
2013-05-10 20:32:00,41.0,-99.9,29.96,SE,130,6.0,7.0,-999,-99.99,,,-99.99,,2013-05-11 01:32:00,
2013-05-10 20:40:00,39.0,-99.9,29.96,SE,140,2.0,3.0,-999,-99.99,,,-99.99,,2013-05-11 01:40:00,
2013-05-10 21:02:00,39.0,-99.9,29.96,SE,140,2.0,3.0,-999,-99.99,,,-99.99,,2013-05-11 02:02:00,
2013-05-10 21:12:00,39.0,-99.9,29.96,SE,140,2.0,3.0,-999,-99.99,,,-99.99,,2013-05-11 02:12:00,
2013-05-10 21:22:00,39.0,-99.9,29.96,SE,140,2.0,3.0,-999,-99.99,,,-99.99,,2013-05-11 02:22:00,
2013-05-10 21:32:00,39.0,-99.9,29.96,SE,140,2.0,3.0,-999,-99.99,,,-99.99,,2013-05-11 02:32:00,
2013-05-10 21:40:00,39.0,-99.9,29.96,SE,140,5.0,6.0,-999,-99.99,,,-99.99,,2013-05-11 02:40:00,
2013-05-10 22:01:00,39.0,-99.9,29.96,SE,140,5.0,6.0,-999,-99.99,,,-99.99,,2013-05-11 03:01:00,
2013-05-10 22:11:00,39.0,-99.9,29.96,SE,140,5.0,6.0,-999,-99.99,,,-99.99,,2013-05-11 03:11:00,
2013-05-10 22:22:00,39.0,-99.9,29.96,SE,140,5.0,6.0,-999,-99.99,,,-99.99,,2013-05-11 03:22:00,
2013-05-10 22:33:00,39.0,-99.9,29.96,SE,140,5.0,6.0,-999,-99.99,,,-99.99,,2013-05-11 03:33:00,
2013-05-10 22:40:00,39.0,-99.9,29.95,South,170,3.0,6.0,-999,-99.99,,,-99.99,,2013-05-11 03:40:00,
2013-05-10 23:03:00,39.0,-99.9,29.95,South,170,3.0,6.0,-999,-99.99,,,-99.99,,2013-05-11 04:03:00,
2013-05-10 23:12:00,39.0,-99.9,29.95,South,170,3.0,6.0,-999,-99.99,,,-99.99,,2013-05-11 04:12:00,
2013-05-10 23:23:00,39.0,-99.9,29.95,South,170,3.0,6.0,-999,-99.99,,,-99.99,,2013-05-11 04:23:00,
2013-05-10 23:33:00,39.0,-99.9,29.95,South,170,3.0,6.0,-999,-99.99,,,-99.99,,2013-05-11 04:33:00,
2013-05-10 23:40:00,38.0,-99.9,29.95,West,270,3.0,5.0,-999,-99.99,,,-99.99,,2013-05-11 04:40:00,